sensor_id;sensor_type;location;lat;lon;timestamp;temperature;humidity
51035;DHT22;37062;52.546;13.230;2022-09-20T00:01:06;10.90;99.90
51035;DHT22;37062;52.546;13.230;2022-09-20T00:03:35;10.90;99.90
51035;DHT22;37062;52.546;13.230;2022-09-20T00:06:04;10.90;99.90
51035;DHT22;37062;52.546;13.230;2022-09-20T00:08:33;10.90;99.90
51035;DHT22;37062;52.546;13.230;2022-09-20T00:11:02;10.90;99.90
51035;DHT22;37062;52.546;13.230;2022-09-20T00:13:32;10.90;99.90
51035;DHT22;37062;52.546;13.230;2022-09-20T00:16:04;10.90;99.90
51035;DHT22;37062;52.546;13.230;2022-09-20T00:18:32;10.80;99.90
51035;DHT22;37062;52.546;13.230;2022-09-20T00:21:01;10.80;99.90
51035;DHT22;37062;52.546;13.230;2022-09-20T00:23:28;10.90;99.90
51035;DHT22;37062;52.546;13.230;2022-09-20T00:25:57;10.80;99.90
51035;DHT22;37062;52.546;13.230;2022-09-20T00:28:26;10.80;99.90
51035;DHT22;37062;52.546;13.230;2022-09-20T00:30:56;10.80;99.90
51035;DHT22;37062;52.546;13.230;2022-09-20T00:33:24;10.80;99.90
51035;DHT22;37062;52.546;13.230;2022-09-20T00:36:12;10.80;99.90
51035;DHT22;37062;52.546;13.230;2022-09-20T00:38:39;10.80;99.90
51035;DHT22;37062;52.546;13.230;2022-09-20T00:41:07;10.70;99.90
51035;DHT22;37062;52.546;13.230;2022-09-20T00:43:37;10.70;99.90
51035;DHT22;37062;52.546;13.230;2022-09-20T00:46:17;10.70;99.90
51035;DHT22;37062;52.546;13.230;2022-09-20T00:48:47;10.70;99.90
51035;DHT22;37062;52.546;13.230;2022-09-20T00:51:18;10.70;99.90
51035;DHT22;37062;52.546;13.230;2022-09-20T00:53:50;10.70;99.90
51035;DHT22;37062;52.546;13.230;2022-09-20T00:56:22;10.70;99.90
51035;DHT22;37062;52.546;13.230;2022-09-20T00:58:58;10.70;99.90
51035;DHT22;37062;52.546;13.230;2022-09-20T01:01:29;10.60;99.90
51035;DHT22;37062;52.546;13.230;2022-09-20T01:03:57;10.70;99.90
51035;DHT22;37062;52.546;13.230;2022-09-20T01:06:26;10.70;99.90
51035;DHT22;37062;52.546;13.230;2022-09-20T01:08:56;10.70;99.90
51035;DHT22;37062;52.546;13.230;2022-09-20T01:11:27;10.70;99.90
51035;DHT22;37062;52.546;13.230;2022-09-20T01:13:55;10.70;99.90
51035;DHT22;37062;52.546;13.230;2022-09-20T01:16:24;10.70;99.90
51035;DHT22;37062;52.546;13.230;2022-09-20T01:18:55;10.70;99.90
51035;DHT22;37062;52.546;13.230;2022-09-20T01:21:24;10.70;99.90
51035;DHT22;37062;52.546;13.230;2022-09-20T01:23:58;10.70;99.90
51035;DHT22;37062;52.546;13.230;2022-09-20T01:26:48;10.70;99.90
51035;DHT22;37062;52.546;13.230;2022-09-20T01:29:33;10.70;99.90
51035;DHT22;37062;52.546;13.230;2022-09-20T01:32:10;10.60;99.90
51035;DHT22;37062;52.546;13.230;2022-09-20T01:34:43;10.60;99.90
51035;DHT22;37062;52.546;13.230;2022-09-20T01:37:18;10.60;99.90
51035;DHT22;37062;52.546;13.230;2022-09-20T01:39:56;10.60;99.90
51035;DHT22;37062;52.546;13.230;2022-09-20T01:42:31;10.60;99.90
51035;DHT22;37062;52.546;13.230;2022-09-20T01:45:05;10.60;99.90
51035;DHT22;37062;52.546;13.230;2022-09-20T01:47:39;10.70;99.90
51035;DHT22;37062;52.546;13.230;2022-09-20T01:50:14;10.60;99.90
51035;DHT22;37062;52.546;13.230;2022-09-20T01:59:03;10.60;99.90
51035;DHT22;37062;52.546;13.230;2022-09-20T02:08:16;10.60;99.90
51035;DHT22;37062;52.546;13.230;2022-09-20T02:11:19;10.60;99.90
51035;DHT22;37062;52.546;13.230;2022-09-20T02:14:03;10.60;99.90
51035;DHT22;37062;52.546;13.230;2022-09-20T02:16:55;10.70;99.90
51035;DHT22;37062;52.546;13.230;2022-09-20T02:26:02;10.70;99.90
51035;DHT22;37062;52.546;13.230;2022-09-20T02:28:45;10.70;99.90
51035;DHT22;37062;52.546;13.230;2022-09-20T02:34:25;10.70;99.90
51035;DHT22;37062;52.546;13.230;2022-09-20T02:37:03;10.80;99.90
51035;DHT22;37062;52.546;13.230;2022-09-20T02:39:35;10.80;99.90
51035;DHT22;37062;52.546;13.230;2022-09-20T02:42:09;10.80;99.90
51035;DHT22;37062;52.546;13.230;2022-09-20T02:44:51;10.90;99.90
51035;DHT22;37062;52.546;13.230;2022-09-20T02:47:29;10.90;99.90
51035;DHT22;37062;52.546;13.230;2022-09-20T02:50:17;11.00;99.90
51035;DHT22;37062;52.546;13.230;2022-09-20T02:52:57;11.10;99.90
51035;DHT22;37062;52.546;13.230;2022-09-20T02:55:39;11.10;99.90
51035;DHT22;37062;52.546;13.230;2022-09-20T02:58:22;11.10;99.90
51035;DHT22;37062;52.546;13.230;2022-09-20T03:00:58;11.10;99.90
51035;DHT22;37062;52.546;13.230;2022-09-20T03:03:38;11.10;99.90
51035;DHT22;37062;52.546;13.230;2022-09-20T03:06:16;11.10;99.90
51035;DHT22;37062;52.546;13.230;2022-09-20T03:08:53;11.10;99.90
51035;DHT22;37062;52.546;13.230;2022-09-20T03:11:28;11.10;99.90
51035;DHT22;37062;52.546;13.230;2022-09-20T03:14:09;11.20;99.90
51035;DHT22;37062;52.546;13.230;2022-09-20T03:16:45;11.10;99.90
51035;DHT22;37062;52.546;13.230;2022-09-20T03:19:23;11.10;99.90
51035;DHT22;37062;52.546;13.230;2022-09-20T03:22:03;11.10;99.90
51035;DHT22;37062;52.546;13.230;2022-09-20T03:24:41;11.10;99.90
51035;DHT22;37062;52.546;13.230;2022-09-20T03:27:19;11.10;99.90
51035;DHT22;37062;52.546;13.230;2022-09-20T03:30:03;11.10;99.90
51035;DHT22;37062;52.546;13.230;2022-09-20T03:32:48;11.10;99.90
51035;DHT22;37062;52.546;13.230;2022-09-20T03:35:28;11.10;99.90
51035;DHT22;37062;52.546;13.230;2022-09-20T03:38:14;11.20;99.90
51035;DHT22;37062;52.546;13.230;2022-09-20T03:41:16;11.10;99.90
51035;DHT22;37062;52.546;13.230;2022-09-20T03:44:03;11.20;99.90
51035;DHT22;37062;52.546;13.230;2022-09-20T03:46:42;11.20;99.90
51035;DHT22;37062;52.546;13.230;2022-09-20T03:49:50;11.30;99.90
51035;DHT22;37062;52.546;13.230;2022-09-20T03:52:37;11.30;99.90
51035;DHT22;37062;52.546;13.230;2022-09-20T03:55:30;11.30;99.90
51035;DHT22;37062;52.546;13.230;2022-09-20T03:58:13;11.30;99.90
51035;DHT22;37062;52.546;13.230;2022-09-20T04:00:55;11.30;99.90
51035;DHT22;37062;52.546;13.230;2022-09-20T04:03:37;11.30;99.90
51035;DHT22;37062;52.546;13.230;2022-09-20T04:06:31;11.30;99.90
51035;DHT22;37062;52.546;13.230;2022-09-20T04:12:09;11.30;99.90
51035;DHT22;37062;52.546;13.230;2022-09-20T04:14:46;11.30;99.90
51035;DHT22;37062;52.546;13.230;2022-09-20T04:17:28;11.30;99.90
51035;DHT22;37062;52.546;13.230;2022-09-20T04:20:04;11.20;99.90
51035;DHT22;37062;52.546;13.230;2022-09-20T04:22:32;11.20;99.90
51035;DHT22;37062;52.546;13.230;2022-09-20T04:25:03;11.20;99.90
51035;DHT22;37062;52.546;13.230;2022-09-20T04:27:35;11.30;99.90
51035;DHT22;37062;52.546;13.230;2022-09-20T04:30:14;11.30;99.90
51035;DHT22;37062;52.546;13.230;2022-09-20T04:32:47;11.30;99.90
51035;DHT22;37062;52.546;13.230;2022-09-20T04:35:29;11.30;99.90
51035;DHT22;37062;52.546;13.230;2022-09-20T04:38:18;11.30;99.90
51035;DHT22;37062;52.546;13.230;2022-09-20T04:41:09;11.30;99.90
51035;DHT22;37062;52.546;13.230;2022-09-20T04:47:19;11.30;99.90
51035;DHT22;37062;52.546;13.230;2022-09-20T04:53:15;11.30;99.90
51035;DHT22;37062;52.546;13.230;2022-09-20T04:55:49;11.30;99.90
51035;DHT22;37062;52.546;13.230;2022-09-20T04:58:37;11.40;99.90
51035;DHT22;37062;52.546;13.230;2022-09-20T05:10:57;11.50;99.90
51035;DHT22;37062;52.546;13.230;2022-09-20T05:13:37;11.40;99.90
51035;DHT22;37062;52.546;13.230;2022-09-20T05:16:14;11.40;99.90
51035;DHT22;37062;52.546;13.230;2022-09-20T05:19:01;11.40;99.90
51035;DHT22;37062;52.546;13.230;2022-09-20T05:21:41;11.40;99.90
51035;DHT22;37062;52.546;13.230;2022-09-20T05:27:17;12.00;99.90
51035;DHT22;37062;52.546;13.230;2022-09-20T05:29:51;12.50;99.90
51035;DHT22;37062;52.546;13.230;2022-09-20T05:32:26;12.80;99.90
51035;DHT22;37062;52.546;13.230;2022-09-20T05:35:00;12.90;99.90
51035;DHT22;37062;52.546;13.230;2022-09-20T05:37:38;12.90;99.90
51035;DHT22;37062;52.546;13.230;2022-09-20T05:40:18;13.00;99.90
51035;DHT22;37062;52.546;13.230;2022-09-20T05:43:01;13.40;99.90
51035;DHT22;37062;52.546;13.230;2022-09-20T05:45:46;13.90;99.90
51035;DHT22;37062;52.546;13.230;2022-09-20T05:48:22;14.30;99.90
51035;DHT22;37062;52.546;13.230;2022-09-20T05:50:56;14.60;99.90
51035;DHT22;37062;52.546;13.230;2022-09-20T05:56:32;14.40;99.90
51035;DHT22;37062;52.546;13.230;2022-09-20T06:04:58;13.60;99.90
51035;DHT22;37062;52.546;13.230;2022-09-20T06:07:36;13.40;99.90
51035;DHT22;37062;52.546;13.230;2022-09-20T06:10:38;13.20;99.90
51035;DHT22;37062;52.546;13.230;2022-09-20T06:13:22;13.10;99.90
51035;DHT22;37062;52.546;13.230;2022-09-20T06:15:57;13.00;99.90
51035;DHT22;37062;52.546;13.230;2022-09-20T06:18:30;13.00;99.90
51035;DHT22;37062;52.546;13.230;2022-09-20T06:21:06;12.90;99.90
51035;DHT22;37062;52.546;13.230;2022-09-20T06:23:35;12.90;99.90
51035;DHT22;37062;52.546;13.230;2022-09-20T06:26:08;12.90;99.90
51035;DHT22;37062;52.546;13.230;2022-09-20T06:28:40;13.00;99.90
51035;DHT22;37062;52.546;13.230;2022-09-20T06:31:10;12.90;99.90
51035;DHT22;37062;52.546;13.230;2022-09-20T06:33:41;13.00;99.90
51035;DHT22;37062;52.546;13.230;2022-09-20T06:36:13;13.00;99.90
51035;DHT22;37062;52.546;13.230;2022-09-20T06:39:05;12.90;99.90
51035;DHT22;37062;52.546;13.230;2022-09-20T06:41:52;12.90;99.90
51035;DHT22;37062;52.546;13.230;2022-09-20T06:44:19;13.00;99.90
51035;DHT22;37062;52.546;13.230;2022-09-20T06:46:48;12.90;99.90
51035;DHT22;37062;52.546;13.230;2022-09-20T06:49:18;12.90;99.90
51035;DHT22;37062;52.546;13.230;2022-09-20T06:51:46;13.00;99.90
51035;DHT22;37062;52.546;13.230;2022-09-20T06:54:17;13.00;99.90
51035;DHT22;37062;52.546;13.230;2022-09-20T06:56:46;13.10;99.90
51035;DHT22;37062;52.546;13.230;2022-09-20T06:59:15;13.10;99.90
51035;DHT22;37062;52.546;13.230;2022-09-20T07:01:42;13.00;99.90
51035;DHT22;37062;52.546;13.230;2022-09-20T07:04:11;13.20;99.90
51035;DHT22;37062;52.546;13.230;2022-09-20T07:06:39;13.30;99.90
51035;DHT22;37062;52.546;13.230;2022-09-20T07:09:08;13.40;99.90
51035;DHT22;37062;52.546;13.230;2022-09-20T07:11:36;14.10;99.90
51035;DHT22;37062;52.546;13.230;2022-09-20T07:14:04;14.80;99.90
51035;DHT22;37062;52.546;13.230;2022-09-20T07:16:33;15.10;99.90
51035;DHT22;37062;52.546;13.230;2022-09-20T07:19:02;15.90;99.90
51035;DHT22;37062;52.546;13.230;2022-09-20T07:21:32;16.80;99.90
51035;DHT22;37062;52.546;13.230;2022-09-20T07:24:00;17.40;99.90
51035;DHT22;37062;52.546;13.230;2022-09-20T07:26:29;18.20;99.90
51035;DHT22;37062;52.546;13.230;2022-09-20T07:28:58;18.30;99.90
51035;DHT22;37062;52.546;13.230;2022-09-20T07:31:27;18.20;99.90
51035;DHT22;37062;52.546;13.230;2022-09-20T07:33:55;18.20;99.90
51035;DHT22;37062;52.546;13.230;2022-09-20T07:36:23;18.10;99.90
51035;DHT22;37062;52.546;13.230;2022-09-20T07:38:52;18.60;99.90
51035;DHT22;37062;52.546;13.230;2022-09-20T07:41:20;19.40;99.90
51035;DHT22;37062;52.546;13.230;2022-09-20T07:43:48;20.30;99.90
51035;DHT22;37062;52.546;13.230;2022-09-20T07:46:17;21.30;99.90
51035;DHT22;37062;52.546;13.230;2022-09-20T07:48:45;22.00;99.90
51035;DHT22;37062;52.546;13.230;2022-09-20T07:51:13;22.50;99.90
51035;DHT22;37062;52.546;13.230;2022-09-20T07:53:40;23.30;99.90
51035;DHT22;37062;52.546;13.230;2022-09-20T07:56:12;23.90;99.90
51035;DHT22;37062;52.546;13.230;2022-09-20T07:58:41;24.50;99.90
51035;DHT22;37062;52.546;13.230;2022-09-20T08:01:11;24.90;99.90
51035;DHT22;37062;52.546;13.230;2022-09-20T08:03:39;25.40;99.90
51035;DHT22;37062;52.546;13.230;2022-09-20T08:06:09;25.60;99.90
51035;DHT22;37062;52.546;13.230;2022-09-20T08:08:38;25.90;99.90
51035;DHT22;37062;52.546;13.230;2022-09-20T08:11:07;26.10;99.90
51035;DHT22;37062;52.546;13.230;2022-09-20T08:13:37;26.10;99.90
51035;DHT22;37062;52.546;13.230;2022-09-20T08:16:06;26.20;99.90
51035;DHT22;37062;52.546;13.230;2022-09-20T08:18:35;26.20;99.90
51035;DHT22;37062;52.546;13.230;2022-09-20T08:21:04;26.30;99.90
51035;DHT22;37062;52.546;13.230;2022-09-20T08:23:33;26.50;99.90
51035;DHT22;37062;52.546;13.230;2022-09-20T08:26:01;26.90;99.90
51035;DHT22;37062;52.546;13.230;2022-09-20T08:28:29;27.10;99.90
51035;DHT22;37062;52.546;13.230;2022-09-20T08:31:03;27.30;99.90
51035;DHT22;37062;52.546;13.230;2022-09-20T08:33:31;27.40;99.90
51035;DHT22;37062;52.546;13.230;2022-09-20T08:35:59;27.40;99.90
51035;DHT22;37062;52.546;13.230;2022-09-20T08:38:27;27.20;99.90
51035;DHT22;37062;52.546;13.230;2022-09-20T08:40:57;27.20;99.90
51035;DHT22;37062;52.546;13.230;2022-09-20T08:43:28;27.30;99.90
51035;DHT22;37062;52.546;13.230;2022-09-20T08:45:58;27.10;99.90
51035;DHT22;37062;52.546;13.230;2022-09-20T08:48:31;27.00;99.90
51035;DHT22;37062;52.546;13.230;2022-09-20T08:51:00;26.70;99.90
51035;DHT22;37062;52.546;13.230;2022-09-20T08:53:28;27.20;99.90
51035;DHT22;37062;52.546;13.230;2022-09-20T08:55:56;27.30;99.90
51035;DHT22;37062;52.546;13.230;2022-09-20T08:58:24;27.50;99.90
51035;DHT22;37062;52.546;13.230;2022-09-20T09:00:53;27.30;99.90
51035;DHT22;37062;52.546;13.230;2022-09-20T09:03:23;27.30;99.90
51035;DHT22;37062;52.546;13.230;2022-09-20T09:05:55;27.20;99.90
51035;DHT22;37062;52.546;13.230;2022-09-20T09:08:24;26.70;99.90
51035;DHT22;37062;52.546;13.230;2022-09-20T09:10:55;26.10;99.90
51035;DHT22;37062;52.546;13.230;2022-09-20T09:13:27;26.20;99.90
51035;DHT22;37062;52.546;13.230;2022-09-20T09:16:00;26.40;99.90
51035;DHT22;37062;52.546;13.230;2022-09-20T09:18:31;26.20;99.90
51035;DHT22;37062;52.546;13.230;2022-09-20T09:21:02;25.90;99.90
51035;DHT22;37062;52.546;13.230;2022-09-20T09:23:37;25.50;99.90
51035;DHT22;37062;52.546;13.230;2022-09-20T09:26:14;25.30;99.90
51035;DHT22;37062;52.546;13.230;2022-09-20T09:28:42;25.50;99.90
51035;DHT22;37062;52.546;13.230;2022-09-20T09:31:21;25.70;99.90
51035;DHT22;37062;52.546;13.230;2022-09-20T09:33:51;25.70;99.90
51035;DHT22;37062;52.546;13.230;2022-09-20T09:36:24;25.70;99.90
51035;DHT22;37062;52.546;13.230;2022-09-20T09:39:13;25.30;99.90
51035;DHT22;37062;52.546;13.230;2022-09-20T09:41:41;25.60;99.90
51035;DHT22;37062;52.546;13.230;2022-09-20T09:44:20;25.70;99.90
51035;DHT22;37062;52.546;13.230;2022-09-20T09:46:48;25.70;99.90
51035;DHT22;37062;52.546;13.230;2022-09-20T09:49:18;25.50;99.90
51035;DHT22;37062;52.546;13.230;2022-09-20T09:52:03;25.10;99.90
51035;DHT22;37062;52.546;13.230;2022-09-20T09:54:32;24.80;99.90
51035;DHT22;37062;52.546;13.230;2022-09-20T09:57:14;24.50;99.90
51035;DHT22;37062;52.546;13.230;2022-09-20T10:00:07;24.50;99.90
51035;DHT22;37062;52.546;13.230;2022-09-20T10:05:57;23.40;99.90
51035;DHT22;37062;52.546;13.230;2022-09-20T10:08:38;22.90;99.90
51035;DHT22;37062;52.546;13.230;2022-09-20T10:11:15;22.40;99.90
51035;DHT22;37062;52.546;13.230;2022-09-20T10:13:52;21.70;99.90
51035;DHT22;37062;52.546;13.230;2022-09-20T10:16:29;21.20;99.90
51035;DHT22;37062;52.546;13.230;2022-09-20T10:19:03;20.90;99.90
51035;DHT22;37062;52.546;13.230;2022-09-20T10:21:40;20.70;99.90
51035;DHT22;37062;52.546;13.230;2022-09-20T10:24:22;20.60;99.90
51035;DHT22;37062;52.546;13.230;2022-09-20T10:27:19;20.50;99.90
51035;DHT22;37062;52.546;13.230;2022-09-20T10:29:58;20.30;99.90
51035;DHT22;37062;52.546;13.230;2022-09-20T10:32:38;20.10;99.90
51035;DHT22;37062;52.546;13.230;2022-09-20T10:35:25;19.80;99.90
51035;DHT22;37062;52.546;13.230;2022-09-20T10:38:20;19.70;99.90
51035;DHT22;37062;52.546;13.230;2022-09-20T10:41:10;19.80;99.90
51035;DHT22;37062;52.546;13.230;2022-09-20T10:44:09;19.80;99.90
51035;DHT22;37062;52.546;13.230;2022-09-20T10:46:57;19.60;99.90
51035;DHT22;37062;52.546;13.230;2022-09-20T10:49:34;19.60;99.90
51035;DHT22;37062;52.546;13.230;2022-09-20T10:52:19;19.60;99.90
51035;DHT22;37062;52.546;13.230;2022-09-20T10:55:02;19.50;99.90
51035;DHT22;37062;52.546;13.230;2022-09-20T10:57:49;19.60;99.90
51035;DHT22;37062;52.546;13.230;2022-09-20T11:00:22;19.80;99.90
51035;DHT22;37062;52.546;13.230;2022-09-20T11:03:05;19.80;99.90
51035;DHT22;37062;52.546;13.230;2022-09-20T11:05:45;20.00;99.90
51035;DHT22;37062;52.546;13.230;2022-09-20T11:08:19;20.10;99.90
51035;DHT22;37062;52.546;13.230;2022-09-20T11:10:49;19.90;99.90
51035;DHT22;37062;52.546;13.230;2022-09-20T11:13:25;19.60;99.90
51035;DHT22;37062;52.546;13.230;2022-09-20T11:15:57;19.00;99.90
51035;DHT22;37062;52.546;13.230;2022-09-20T11:18:32;18.30;99.90
51035;DHT22;37062;52.546;13.230;2022-09-20T11:21:08;17.70;99.90
51035;DHT22;37062;52.546;13.230;2022-09-20T11:23:45;17.40;99.90
51035;DHT22;37062;52.546;13.230;2022-09-20T11:26:20;17.20;99.90
51035;DHT22;37062;52.546;13.230;2022-09-20T11:28:54;17.00;99.90
51035;DHT22;37062;52.546;13.230;2022-09-20T11:31:25;16.90;99.90
51035;DHT22;37062;52.546;13.230;2022-09-20T11:33:58;16.80;99.90
51035;DHT22;37062;52.546;13.230;2022-09-20T11:36:30;16.70;99.90
51035;DHT22;37062;52.546;13.230;2022-09-20T11:39:10;16.60;99.90
51035;DHT22;37062;52.546;13.230;2022-09-20T11:41:42;16.70;99.90
51035;DHT22;37062;52.546;13.230;2022-09-20T11:44:15;16.70;99.90
51035;DHT22;37062;52.546;13.230;2022-09-20T11:46:48;16.70;99.90
51035;DHT22;37062;52.546;13.230;2022-09-20T11:49:20;16.70;99.90
51035;DHT22;37062;52.546;13.230;2022-09-20T11:52:06;16.70;99.90
51035;DHT22;37062;52.546;13.230;2022-09-20T11:55:01;16.70;99.90
51035;DHT22;37062;52.546;13.230;2022-09-20T11:57:33;16.60;99.90
51035;DHT22;37062;52.546;13.230;2022-09-20T12:00:05;16.60;99.90
51035;DHT22;37062;52.546;13.230;2022-09-20T12:02:46;16.60;99.90
51035;DHT22;37062;52.546;13.230;2022-09-20T12:05:28;16.70;99.90
51035;DHT22;37062;52.546;13.230;2022-09-20T12:07:59;16.80;99.90
51035;DHT22;37062;52.546;13.230;2022-09-20T12:10:29;17.00;99.90
51035;DHT22;37062;52.546;13.230;2022-09-20T12:13:00;17.00;99.90
51035;DHT22;37062;52.546;13.230;2022-09-20T12:15:33;17.00;99.90
51035;DHT22;37062;52.546;13.230;2022-09-20T12:21:16;17.20;99.90
51035;DHT22;37062;52.546;13.230;2022-09-20T12:24:05;17.20;99.90
51035;DHT22;37062;52.546;13.230;2022-09-20T12:26:42;16.90;99.90
51035;DHT22;37062;52.546;13.230;2022-09-20T12:32:45;17.00;99.90
51035;DHT22;37062;52.546;13.230;2022-09-20T12:38:29;17.30;99.90
51035;DHT22;37062;52.546;13.230;2022-09-20T12:41:00;17.40;99.90
51035;DHT22;37062;52.546;13.230;2022-09-20T12:43:29;17.50;99.90
51035;DHT22;37062;52.546;13.230;2022-09-20T12:45:57;17.40;99.90
51035;DHT22;37062;52.546;13.230;2022-09-20T12:48:31;17.00;99.90
51035;DHT22;37062;52.546;13.230;2022-09-20T12:51:15;16.40;99.90
51035;DHT22;37062;52.546;13.230;2022-09-20T12:54:10;15.70;99.90
51035;DHT22;37062;52.546;13.230;2022-09-20T12:56:39;15.00;99.90
51035;DHT22;37062;52.546;13.230;2022-09-20T12:59:21;14.70;99.90
51035;DHT22;37062;52.546;13.230;2022-09-20T13:01:49;14.40;99.90
51035;DHT22;37062;52.546;13.230;2022-09-20T13:04:48;14.20;99.90
51035;DHT22;37062;52.546;13.230;2022-09-20T13:07:41;14.20;99.90
51035;DHT22;37062;52.546;13.230;2022-09-20T13:10:28;14.30;99.90
51035;DHT22;37062;52.546;13.230;2022-09-20T13:13:01;14.50;99.90
51035;DHT22;37062;52.546;13.230;2022-09-20T13:15:29;14.40;99.90
51035;DHT22;37062;52.546;13.230;2022-09-20T13:18:00;14.40;99.90
51035;DHT22;37062;52.546;13.230;2022-09-20T13:20:31;14.50;99.90
51035;DHT22;37062;52.546;13.230;2022-09-20T13:23:02;14.50;99.90
51035;DHT22;37062;52.546;13.230;2022-09-20T13:25:33;14.40;99.90
51035;DHT22;37062;52.546;13.230;2022-09-20T13:28:06;14.40;99.90
51035;DHT22;37062;52.546;13.230;2022-09-20T13:30:35;14.60;99.90
51035;DHT22;37062;52.546;13.230;2022-09-20T13:33:19;14.70;99.90
51035;DHT22;37062;52.546;13.230;2022-09-20T13:35:51;14.80;99.90
51035;DHT22;37062;52.546;13.230;2022-09-20T13:38:19;14.80;99.90
51035;DHT22;37062;52.546;13.230;2022-09-20T13:40:51;14.90;99.90
51035;DHT22;37062;52.546;13.230;2022-09-20T13:43:25;14.90;99.90
51035;DHT22;37062;52.546;13.230;2022-09-20T13:45:55;14.80;99.90
51035;DHT22;37062;52.546;13.230;2022-09-20T13:48:24;14.90;99.90
51035;DHT22;37062;52.546;13.230;2022-09-20T13:50:54;14.90;99.90
51035;DHT22;37062;52.546;13.230;2022-09-20T13:53:23;15.10;99.90
51035;DHT22;37062;52.546;13.230;2022-09-20T13:55:51;15.20;99.90
51035;DHT22;37062;52.546;13.230;2022-09-20T13:58:23;15.20;99.90
51035;DHT22;37062;52.546;13.230;2022-09-20T14:00:54;15.30;99.90
51035;DHT22;37062;52.546;13.230;2022-09-20T14:03:22;15.30;99.90
51035;DHT22;37062;52.546;13.230;2022-09-20T14:05:51;15.30;99.90
51035;DHT22;37062;52.546;13.230;2022-09-20T14:08:23;15.40;99.90
51035;DHT22;37062;52.546;13.230;2022-09-20T14:11:03;15.50;99.90
51035;DHT22;37062;52.546;13.230;2022-09-20T14:13:36;15.50;99.90
51035;DHT22;37062;52.546;13.230;2022-09-20T14:16:06;15.60;99.90
51035;DHT22;37062;52.546;13.230;2022-09-20T14:18:34;15.70;99.90
51035;DHT22;37062;52.546;13.230;2022-09-20T14:21:05;15.70;99.90
51035;DHT22;37062;52.546;13.230;2022-09-20T14:23:49;15.70;99.90
51035;DHT22;37062;52.546;13.230;2022-09-20T14:26:23;15.60;99.90
51035;DHT22;37062;52.546;13.230;2022-09-20T14:28:51;15.60;99.90
51035;DHT22;37062;52.546;13.230;2022-09-20T14:31:22;15.60;99.90
51035;DHT22;37062;52.546;13.230;2022-09-20T14:33:54;15.60;99.90
51035;DHT22;37062;52.546;13.230;2022-09-20T14:36:25;15.70;99.90
51035;DHT22;37062;52.546;13.230;2022-09-20T14:38:58;15.70;99.90
51035;DHT22;37062;52.546;13.230;2022-09-20T14:41:33;15.80;99.90
51035;DHT22;37062;52.546;13.230;2022-09-20T14:44:02;15.90;99.90
51035;DHT22;37062;52.546;13.230;2022-09-20T14:46:32;16.00;99.90
51035;DHT22;37062;52.546;13.230;2022-09-20T14:49:28;16.00;99.90
51035;DHT22;37062;52.546;13.230;2022-09-20T14:52:27;16.10;99.90
51035;DHT22;37062;52.546;13.230;2022-09-20T14:55:01;16.20;99.90
51035;DHT22;37062;52.546;13.230;2022-09-20T14:57:31;16.20;99.90
51035;DHT22;37062;52.546;13.230;2022-09-20T15:00:04;16.10;99.90
51035;DHT22;37062;52.546;13.230;2022-09-20T15:02:34;15.90;99.90
51035;DHT22;37062;52.546;13.230;2022-09-20T15:05:02;15.90;99.90
51035;DHT22;37062;52.546;13.230;2022-09-20T15:07:30;15.80;99.90
51035;DHT22;37062;52.546;13.230;2022-09-20T15:09:59;15.80;99.90
51035;DHT22;37062;52.546;13.230;2022-09-20T15:12:26;15.90;99.90
51035;DHT22;37062;52.546;13.230;2022-09-20T15:14:54;15.90;99.90
51035;DHT22;37062;52.546;13.230;2022-09-20T15:17:22;15.90;99.90
51035;DHT22;37062;52.546;13.230;2022-09-20T15:19:50;15.90;99.90
51035;DHT22;37062;52.546;13.230;2022-09-20T15:22:17;16.00;99.90
51035;DHT22;37062;52.546;13.230;2022-09-20T15:24:45;16.10;99.90
51035;DHT22;37062;52.546;13.230;2022-09-20T15:27:14;16.10;99.90
51035;DHT22;37062;52.546;13.230;2022-09-20T15:29:41;16.10;99.90
51035;DHT22;37062;52.546;13.230;2022-09-20T15:32:09;16.00;99.90
51035;DHT22;37062;52.546;13.230;2022-09-20T15:34:37;16.00;99.90
51035;DHT22;37062;52.546;13.230;2022-09-20T15:37:04;16.00;99.90
51035;DHT22;37062;52.546;13.230;2022-09-20T15:39:32;16.00;99.90
51035;DHT22;37062;52.546;13.230;2022-09-20T15:41:59;16.00;99.90
51035;DHT22;37062;52.546;13.230;2022-09-20T15:44:29;16.00;99.90
51035;DHT22;37062;52.546;13.230;2022-09-20T15:46:58;16.10;99.90
51035;DHT22;37062;52.546;13.230;2022-09-20T15:49:25;16.00;99.90
51035;DHT22;37062;52.546;13.230;2022-09-20T15:51:54;16.00;99.90
51035;DHT22;37062;52.546;13.230;2022-09-20T15:54:22;15.90;99.90
51035;DHT22;37062;52.546;13.230;2022-09-20T15:56:51;16.00;99.90
51035;DHT22;37062;52.546;13.230;2022-09-20T15:59:19;16.00;99.90
51035;DHT22;37062;52.546;13.230;2022-09-20T16:01:49;16.10;99.90
51035;DHT22;37062;52.546;13.230;2022-09-20T16:04:18;16.10;99.90
51035;DHT22;37062;52.546;13.230;2022-09-20T16:06:47;16.10;99.90
51035;DHT22;37062;52.546;13.230;2022-09-20T16:09:15;16.10;99.90
51035;DHT22;37062;52.546;13.230;2022-09-20T16:11:43;16.10;99.90
51035;DHT22;37062;52.546;13.230;2022-09-20T16:14:11;16.10;99.90
51035;DHT22;37062;52.546;13.230;2022-09-20T16:16:38;16.00;99.90
51035;DHT22;37062;52.546;13.230;2022-09-20T16:19:08;16.00;99.90
51035;DHT22;37062;52.546;13.230;2022-09-20T16:21:49;15.80;99.90
51035;DHT22;37062;52.546;13.230;2022-09-20T16:24:22;15.60;99.90
51035;DHT22;37062;52.546;13.230;2022-09-20T16:26:52;15.50;99.90
51035;DHT22;37062;52.546;13.230;2022-09-20T16:29:20;15.40;99.90
51035;DHT22;37062;52.546;13.230;2022-09-20T16:31:50;15.30;99.90
51035;DHT22;37062;52.546;13.230;2022-09-20T16:34:21;15.40;99.90
51035;DHT22;37062;52.546;13.230;2022-09-20T16:36:52;15.40;99.90
51035;DHT22;37062;52.546;13.230;2022-09-20T16:39:21;15.30;99.90
51035;DHT22;37062;52.546;13.230;2022-09-20T16:41:53;15.30;99.90
51035;DHT22;37062;52.546;13.230;2022-09-20T16:44:22;15.20;99.90
51035;DHT22;37062;52.546;13.230;2022-09-20T16:46:50;15.20;99.90
51035;DHT22;37062;52.546;13.230;2022-09-20T16:49:17;15.10;99.90
51035;DHT22;37062;52.546;13.230;2022-09-20T16:51:47;15.00;99.90
51035;DHT22;37062;52.546;13.230;2022-09-20T16:54:15;14.90;99.90
51035;DHT22;37062;52.546;13.230;2022-09-20T16:56:44;14.90;99.90
51035;DHT22;37062;52.546;13.230;2022-09-20T16:59:13;14.80;99.90
51035;DHT22;37062;52.546;13.230;2022-09-20T17:01:41;14.80;99.90
51035;DHT22;37062;52.546;13.230;2022-09-20T17:04:09;14.70;99.90
51035;DHT22;37062;52.546;13.230;2022-09-20T17:06:39;14.70;99.90